sensor_id;sensor_type;location;lat;lon;timestamp;P1;durP1;ratioP1;P2;durP2;ratioP2
26106;SDS011;13866;50.748;12.630;2023-05-10T00:01:03;3.40;;;3.30;;
26106;SDS011;13866;50.748;12.630;2023-05-10T00:03:29;3.17;;;3.17;;
26106;SDS011;13866;50.748;12.630;2023-05-10T00:05:54;3.43;;;3.43;;
26106;SDS011;13866;50.748;12.630;2023-05-10T00:08:20;3.43;;;3.33;;
26106;SDS011;13866;50.748;12.630;2023-05-10T00:10:45;3.67;;;3.60;;
26106;SDS011;13866;50.748;12.630;2023-05-10T00:13:11;3.73;;;3.63;;
26106;SDS011;13866;50.748;12.630;2023-05-10T00:15:36;10.10;;;4.00;;
26106;SDS011;13866;50.748;12.630;2023-05-10T00:18:02;3.50;;;3.40;;
26106;SDS011;13866;50.748;12.630;2023-05-10T00:20:27;7.53;;;3.20;;
26106;SDS011;13866;50.748;12.630;2023-05-10T00:22:53;3.70;;;3.47;;
26106;SDS011;13866;50.748;12.630;2023-05-10T00:25:18;4.47;;;4.07;;
26106;SDS011;13866;50.748;12.630;2023-05-10T00:27:45;5.20;;;3.27;;
26106;SDS011;13866;50.748;12.630;2023-05-10T00:30:10;5.23;;;3.50;;
26106;SDS011;13866;50.748;12.630;2023-05-10T00:32:36;4.10;;;3.90;;
26106;SDS011;13866;50.748;12.630;2023-05-10T00:35:02;4.03;;;3.97;;
26106;SDS011;13866;50.748;12.630;2023-05-10T00:37:27;3.80;;;3.53;;
26106;SDS011;13866;50.748;12.630;2023-05-10T00:39:53;3.73;;;3.60;;
26106;SDS011;13866;50.748;12.630;2023-05-10T00:42:18;4.20;;;4.00;;
26106;SDS011;13866;50.748;12.630;2023-05-10T00:44:43;3.57;;;3.57;;
26106;SDS011;13866;50.748;12.630;2023-05-10T00:47:09;4.87;;;3.87;;
26106;SDS011;13866;50.748;12.630;2023-05-10T00:49:35;3.40;;;3.30;;
26106;SDS011;13866;50.748;12.630;2023-05-10T00:52:01;3.60;;;3.50;;
26106;SDS011;13866;50.748;12.630;2023-05-10T00:54:27;4.73;;;4.37;;
26106;SDS011;13866;50.748;12.630;2023-05-10T00:56:53;3.60;;;3.60;;
26106;SDS011;13866;50.748;12.630;2023-05-10T00:59:19;9.03;;;4.13;;
26106;SDS011;13866;50.748;12.630;2023-05-10T01:01:45;3.47;;;3.27;;
26106;SDS011;13866;50.748;12.630;2023-05-10T01:04:12;4.83;;;4.53;;
26106;SDS011;13866;50.748;12.630;2023-05-10T01:06:38;5.03;;;3.63;;
26106;SDS011;13866;50.748;12.630;2023-05-10T01:09:07;4.60;;;4.50;;
26106;SDS011;13866;50.748;12.630;2023-05-10T01:11:36;3.93;;;3.73;;
26106;SDS011;13866;50.748;12.630;2023-05-10T01:14:04;4.00;;;4.00;;
26106;SDS011;13866;50.748;12.630;2023-05-10T01:16:32;3.57;;;3.37;;
26106;SDS011;13866;50.748;12.630;2023-05-10T01:19:01;5.20;;;4.23;;
26106;SDS011;13866;50.748;12.630;2023-05-10T01:24:12;4.27;;;4.17;;
26106;SDS011;13866;50.748;12.630;2023-05-10T01:27:13;3.83;;;3.73;;
26106;SDS011;13866;50.748;12.630;2023-05-10T01:32:27;3.90;;;3.80;;
26106;SDS011;13866;50.748;12.630;2023-05-10T01:35:17;4.23;;;4.00;;
26106;SDS011;13866;50.748;12.630;2023-05-10T01:37:59;3.83;;;3.57;;
26106;SDS011;13866;50.748;12.630;2023-05-10T01:40:48;3.90;;;3.80;;
26106;SDS011;13866;50.748;12.630;2023-05-10T01:43:26;4.23;;;4.13;;
26106;SDS011;13866;50.748;12.630;2023-05-10T01:46:04;5.87;;;4.23;;
26106;SDS011;13866;50.748;12.630;2023-05-10T01:48:36;4.30;;;4.20;;
26106;SDS011;13866;50.748;12.630;2023-05-10T01:51:05;3.80;;;3.80;;
26106;SDS011;13866;50.748;12.630;2023-05-10T01:53:31;3.67;;;3.67;;
26106;SDS011;13866;50.748;12.630;2023-05-10T01:55:59;3.80;;;3.70;;
26106;SDS011;13866;50.748;12.630;2023-05-10T01:58:27;4.17;;;3.97;;
26106;SDS011;13866;50.748;12.630;2023-05-10T02:00:55;3.70;;;3.60;;
26106;SDS011;13866;50.748;12.630;2023-05-10T02:03:25;4.43;;;4.20;;
26106;SDS011;13866;50.748;12.630;2023-05-10T02:05:52;5.03;;;4.53;;
26106;SDS011;13866;50.748;12.630;2023-05-10T02:08:19;4.37;;;4.17;;
26106;SDS011;13866;50.748;12.630;2023-05-10T02:10:47;4.00;;;3.87;;
26106;SDS011;13866;50.748;12.630;2023-05-10T02:13:15;4.63;;;3.87;;
26106;SDS011;13866;50.748;12.630;2023-05-10T02:15:42;4.17;;;3.83;;
26106;SDS011;13866;50.748;12.630;2023-05-10T02:18:10;4.77;;;4.13;;
26106;SDS011;13866;50.748;12.630;2023-05-10T02:20:37;4.60;;;3.60;;
26106;SDS011;13866;50.748;12.630;2023-05-10T02:23:04;3.80;;;3.70;;
26106;SDS011;13866;50.748;12.630;2023-05-10T02:25:30;3.93;;;3.83;;
26106;SDS011;13866;50.748;12.630;2023-05-10T02:27:57;4.93;;;4.70;;
26106;SDS011;13866;50.748;12.630;2023-05-10T02:30:24;5.43;;;4.60;;
26106;SDS011;13866;50.748;12.630;2023-05-10T02:32:51;4.30;;;4.20;;
26106;SDS011;13866;50.748;12.630;2023-05-10T02:35:17;14.13;;;5.87;;
26106;SDS011;13866;50.748;12.630;2023-05-10T02:37:43;5.17;;;4.97;;
26106;SDS011;13866;50.748;12.630;2023-05-10T02:40:09;4.70;;;4.60;;
26106;SDS011;13866;50.748;12.630;2023-05-10T02:42:36;8.57;;;4.07;;
26106;SDS011;13866;50.748;12.630;2023-05-10T02:45:07;4.20;;;4.10;;
26106;SDS011;13866;50.748;12.630;2023-05-10T02:47:36;4.67;;;4.47;;
26106;SDS011;13866;50.748;12.630;2023-05-10T02:50:02;4.27;;;4.17;;
26106;SDS011;13866;50.748;12.630;2023-05-10T02:52:29;4.37;;;4.27;;
26106;SDS011;13866;50.748;12.630;2023-05-10T02:55:02;4.30;;;4.10;;
26106;SDS011;13866;50.748;12.630;2023-05-10T02:57:32;5.03;;;4.80;;
26106;SDS011;13866;50.748;12.630;2023-05-10T02:59:59;5.13;;;4.80;;
26106;SDS011;13866;50.748;12.630;2023-05-10T03:02:26;4.70;;;4.60;;
26106;SDS011;13866;50.748;12.630;2023-05-10T03:04:51;4.33;;;4.13;;
26106;SDS011;13866;50.748;12.630;2023-05-10T03:07:17;4.17;;;4.00;;
26106;SDS011;13866;50.748;12.630;2023-05-10T03:09:46;5.03;;;4.20;;
26106;SDS011;13866;50.748;12.630;2023-05-10T03:12:16;4.47;;;4.27;;
26106;SDS011;13866;50.748;12.630;2023-05-10T03:17:39;5.07;;;4.87;;
26106;SDS011;13866;50.748;12.630;2023-05-10T03:20:15;4.83;;;4.67;;
26106;SDS011;13866;50.748;12.630;2023-05-10T03:22:55;6.40;;;4.70;;
26106;SDS011;13866;50.748;12.630;2023-05-10T03:25:29;9.17;;;4.80;;
26106;SDS011;13866;50.748;12.630;2023-05-10T03:27:56;5.73;;;4.83;;
26106;SDS011;13866;50.748;12.630;2023-05-10T03:30:22;5.03;;;4.83;;
26106;SDS011;13866;50.748;12.630;2023-05-10T03:32:49;4.60;;;4.50;;
26106;SDS011;13866;50.748;12.630;2023-05-10T03:35:15;4.27;;;4.17;;
26106;SDS011;13866;50.748;12.630;2023-05-10T03:37:40;4.40;;;4.30;;
26106;SDS011;13866;50.748;12.630;2023-05-10T03:40:06;3.93;;;3.93;;
26106;SDS011;13866;50.748;12.630;2023-05-10T03:42:32;5.30;;;5.10;;
26106;SDS011;13866;50.748;12.630;2023-05-10T03:44:57;4.23;;;4.13;;
26106;SDS011;13866;50.748;12.630;2023-05-10T03:47:23;4.10;;;4.00;;
26106;SDS011;13866;50.748;12.630;2023-05-10T03:49:48;4.90;;;4.70;;
26106;SDS011;13866;50.748;12.630;2023-05-10T03:52:14;5.17;;;4.70;;
26106;SDS011;13866;50.748;12.630;2023-05-10T03:54:40;4.40;;;4.30;;
26106;SDS011;13866;50.748;12.630;2023-05-10T03:57:05;4.73;;;4.63;;
26106;SDS011;13866;50.748;12.630;2023-05-10T03:59:31;5.63;;;4.37;;
26106;SDS011;13866;50.748;12.630;2023-05-10T04:01:56;5.27;;;4.97;;
26106;SDS011;13866;50.748;12.630;2023-05-10T04:04:22;4.80;;;4.40;;
26106;SDS011;13866;50.748;12.630;2023-05-10T04:06:48;5.27;;;4.83;;
26106;SDS011;13866;50.748;12.630;2023-05-10T04:09:13;4.83;;;4.63;;
26106;SDS011;13866;50.748;12.630;2023-05-10T04:11:39;4.00;;;3.90;;
26106;SDS011;13866;50.748;12.630;2023-05-10T04:14:04;5.00;;;4.20;;
26106;SDS011;13866;50.748;12.630;2023-05-10T04:16:30;4.20;;;4.00;;
26106;SDS011;13866;50.748;12.630;2023-05-10T04:18:55;4.40;;;4.13;;
26106;SDS011;13866;50.748;12.630;2023-05-10T04:21:21;4.07;;;3.97;;
26106;SDS011;13866;50.748;12.630;2023-05-10T04:23:46;4.50;;;4.13;;
26106;SDS011;13866;50.748;12.630;2023-05-10T04:26:12;4.37;;;4.07;;
26106;SDS011;13866;50.748;12.630;2023-05-10T04:28:38;4.80;;;4.50;;
26106;SDS011;13866;50.748;12.630;2023-05-10T04:31:05;4.03;;;3.77;;
26106;SDS011;13866;50.748;12.630;2023-05-10T04:33:32;4.23;;;4.13;;
26106;SDS011;13866;50.748;12.630;2023-05-10T04:35:58;3.90;;;3.80;;
26106;SDS011;13866;50.748;12.630;2023-05-10T04:38:24;4.00;;;3.80;;
26106;SDS011;13866;50.748;12.630;2023-05-10T04:40:50;3.87;;;3.87;;
26106;SDS011;13866;50.748;12.630;2023-05-10T04:43:15;3.97;;;3.70;;
26106;SDS011;13866;50.748;12.630;2023-05-10T04:45:41;4.27;;;4.17;;
26106;SDS011;13866;50.748;12.630;2023-05-10T04:48:06;4.03;;;3.90;;
26106;SDS011;13866;50.748;12.630;2023-05-10T04:50:32;4.97;;;3.83;;
26106;SDS011;13866;50.748;12.630;2023-05-10T04:52:58;3.90;;;3.80;;
26106;SDS011;13866;50.748;12.630;2023-05-10T04:55:23;4.93;;;4.60;;
26106;SDS011;13866;50.748;12.630;2023-05-10T04:57:49;4.63;;;4.43;;
26106;SDS011;13866;50.748;12.630;2023-05-10T05:00:15;3.73;;;3.63;;
26106;SDS011;13866;50.748;12.630;2023-05-10T05:02:45;3.57;;;3.47;;
26106;SDS011;13866;50.748;12.630;2023-05-10T05:05:11;3.50;;;3.40;;
26106;SDS011;13866;50.748;12.630;2023-05-10T05:07:37;3.83;;;3.83;;
26106;SDS011;13866;50.748;12.630;2023-05-10T05:10:03;4.53;;;4.23;;
26106;SDS011;13866;50.748;12.630;2023-05-10T05:12:30;3.90;;;3.80;;
26106;SDS011;13866;50.748;12.630;2023-05-10T05:14:56;3.40;;;3.30;;
26106;SDS011;13866;50.748;12.630;2023-05-10T05:17:21;4.33;;;3.97;;
26106;SDS011;13866;50.748;12.630;2023-05-10T05:19:47;4.07;;;3.77;;
26106;SDS011;13866;50.748;12.630;2023-05-10T05:22:12;3.50;;;3.40;;
26106;SDS011;13866;50.748;12.630;2023-05-10T05:24:38;3.10;;;3.00;;
26106;SDS011;13866;50.748;12.630;2023-05-10T05:27:03;3.93;;;3.73;;
26106;SDS011;13866;50.748;12.630;2023-05-10T05:29:29;2.97;;;2.97;;
26106;SDS011;13866;50.748;12.630;2023-05-10T05:31:54;3.77;;;3.57;;
26106;SDS011;13866;50.748;12.630;2023-05-10T05:34:20;3.07;;;3.07;;
26106;SDS011;13866;50.748;12.630;2023-05-10T05:36:46;3.83;;;3.83;;
26106;SDS011;13866;50.748;12.630;2023-05-10T05:39:12;3.37;;;3.27;;
26106;SDS011;13866;50.748;12.630;2023-05-10T05:41:37;3.60;;;3.60;;
26106;SDS011;13866;50.748;12.630;2023-05-10T05:44:03;4.37;;;4.17;;
26106;SDS011;13866;50.748;12.630;2023-05-10T05:46:28;4.03;;;3.73;;
26106;SDS011;13866;50.748;12.630;2023-05-10T05:48:54;4.13;;;4.03;;
26106;SDS011;13866;50.748;12.630;2023-05-10T05:51:20;3.73;;;3.50;;
26106;SDS011;13866;50.748;12.630;2023-05-10T05:53:45;3.23;;;3.13;;
26106;SDS011;13866;50.748;12.630;2023-05-10T05:56:11;4.93;;;3.70;;
26106;SDS011;13866;50.748;12.630;2023-05-10T05:58:36;3.93;;;3.63;;
26106;SDS011;13866;50.748;12.630;2023-05-10T06:01:02;5.23;;;3.93;;
26106;SDS011;13866;50.748;12.630;2023-05-10T06:03:27;3.40;;;3.40;;
26106;SDS011;13866;50.748;12.630;2023-05-10T06:05:53;6.70;;;3.40;;
26106;SDS011;13866;50.748;12.630;2023-05-10T06:08:18;3.77;;;3.57;;
26106;SDS011;13866;50.748;12.630;2023-05-10T06:10:44;4.07;;;3.87;;
26106;SDS011;13866;50.748;12.630;2023-05-10T06:13:10;3.67;;;3.67;;
26106;SDS011;13866;50.748;12.630;2023-05-10T06:15:35;3.70;;;3.60;;
26106;SDS011;13866;50.748;12.630;2023-05-10T06:18:01;3.50;;;3.40;;
26106;SDS011;13866;50.748;12.630;2023-05-10T06:20:26;3.37;;;3.10;;
26106;SDS011;13866;50.748;12.630;2023-05-10T06:22:52;3.63;;;3.57;;
26106;SDS011;13866;50.748;12.630;2023-05-10T06:25:17;3.70;;;3.60;;
26106;SDS011;13866;50.748;12.630;2023-05-10T06:27:43;3.70;;;3.40;;
26106;SDS011;13866;50.748;12.630;2023-05-10T06:30:09;3.77;;;3.67;;
26106;SDS011;13866;50.748;12.630;2023-05-10T06:32:38;3.97;;;3.77;;
26106;SDS011;13866;50.748;12.630;2023-05-10T06:35:04;3.80;;;3.60;;
26106;SDS011;13866;50.748;12.630;2023-05-10T06:37:30;4.93;;;4.27;;
26106;SDS011;13866;50.748;12.630;2023-05-10T06:39:55;3.73;;;3.50;;
26106;SDS011;13866;50.748;12.630;2023-05-10T06:42:21;3.97;;;3.83;;
26106;SDS011;13866;50.748;12.630;2023-05-10T06:44:46;3.30;;;3.30;;
26106;SDS011;13866;50.748;12.630;2023-05-10T06:47:12;3.77;;;3.60;;
26106;SDS011;13866;50.748;12.630;2023-05-10T06:49:37;3.63;;;3.33;;
26106;SDS011;13866;50.748;12.630;2023-05-10T06:52:03;5.17;;;3.23;;
26106;SDS011;13866;50.748;12.630;2023-05-10T06:54:29;3.70;;;3.60;;
26106;SDS011;13866;50.748;12.630;2023-05-10T06:56:54;4.13;;;3.93;;
26106;SDS011;13866;50.748;12.630;2023-05-10T06:59:20;3.60;;;3.03;;
26106;SDS011;13866;50.748;12.630;2023-05-10T07:02:01;5.57;;;3.87;;
26106;SDS011;13866;50.748;12.630;2023-05-10T07:04:27;9.13;;;3.43;;
26106;SDS011;13866;50.748;12.630;2023-05-10T07:06:52;4.17;;;4.07;;
26106;SDS011;13866;50.748;12.630;2023-05-10T07:09:18;5.60;;;3.70;;
26106;SDS011;13866;50.748;12.630;2023-05-10T07:11:44;7.30;;;4.87;;
26106;SDS011;13866;50.748;12.630;2023-05-10T07:14:10;4.10;;;3.73;;
26106;SDS011;13866;50.748;12.630;2023-05-10T07:16:35;7.63;;;3.80;;
26106;SDS011;13866;50.748;12.630;2023-05-10T07:19:01;4.20;;;3.43;;
26106;SDS011;13866;50.748;12.630;2023-05-10T07:21:27;5.00;;;4.13;;
26106;SDS011;13866;50.748;12.630;2023-05-10T07:23:53;4.37;;;3.97;;
26106;SDS011;13866;50.748;12.630;2023-05-10T07:26:19;4.13;;;3.73;;
26106;SDS011;13866;50.748;12.630;2023-05-10T07:28:45;10.33;;;4.10;;
26106;SDS011;13866;50.748;12.630;2023-05-10T07:31:11;25.20;;;4.20;;
26106;SDS011;13866;50.748;12.630;2023-05-10T07:33:37;6.73;;;3.13;;
26106;SDS011;13866;50.748;12.630;2023-05-10T07:36:02;13.60;;;5.17;;
26106;SDS011;13866;50.748;12.630;2023-05-10T07:38:28;6.50;;;3.50;;
26106;SDS011;13866;50.748;12.630;2023-05-10T07:40:53;7.63;;;4.00;;
26106;SDS011;13866;50.748;12.630;2023-05-10T07:43:19;15.63;;;5.17;;
26106;SDS011;13866;50.748;12.630;2023-05-10T07:45:44;19.23;;;4.13;;
26106;SDS011;13866;50.748;12.630;2023-05-10T07:48:10;11.43;;;4.03;;
26106;SDS011;13866;50.748;12.630;2023-05-10T07:53:24;4.00;;;3.90;;
26106;SDS011;13866;50.748;12.630;2023-05-10T07:55:51;5.13;;;4.57;;
26106;SDS011;13866;50.748;12.630;2023-05-10T07:58:19;6.67;;;4.10;;
26106;SDS011;13866;50.748;12.630;2023-05-10T08:00:44;4.63;;;4.17;;
26106;SDS011;13866;50.748;12.630;2023-05-10T08:03:10;4.17;;;4.03;;
26106;SDS011;13866;50.748;12.630;2023-05-10T08:05:35;4.93;;;4.83;;
26106;SDS011;13866;50.748;12.630;2023-05-10T08:08:01;4.97;;;4.77;;
26106;SDS011;13866;50.748;12.630;2023-05-10T08:10:27;4.90;;;4.70;;
26106;SDS011;13866;50.748;12.630;2023-05-10T08:12:52;5.07;;;4.73;;
26106;SDS011;13866;50.748;12.630;2023-05-10T08:15:18;5.87;;;5.27;;
26106;SDS011;13866;50.748;12.630;2023-05-10T08:17:43;5.30;;;5.00;;
26106;SDS011;13866;50.748;12.630;2023-05-10T08:20:10;13.00;;;6.10;;
26106;SDS011;13866;50.748;12.630;2023-05-10T08:22:37;5.87;;;5.47;;
26106;SDS011;13866;50.748;12.630;2023-05-10T08:25:03;6.13;;;5.83;;
26106;SDS011;13866;50.748;12.630;2023-05-10T08:27:29;7.33;;;6.93;;
26106;SDS011;13866;50.748;12.630;2023-05-10T08:29:54;7.37;;;7.00;;
26106;SDS011;13866;50.748;12.630;2023-05-10T08:32:20;6.13;;;6.00;;
26106;SDS011;13866;50.748;12.630;2023-05-10T08:34:46;7.93;;;7.47;;
26106;SDS011;13866;50.748;12.630;2023-05-10T08:37:11;6.60;;;6.37;;
26106;SDS011;13866;50.748;12.630;2023-05-10T08:39:38;6.80;;;6.50;;
26106;SDS011;13866;50.748;12.630;2023-05-10T08:42:03;7.53;;;7.00;;
26106;SDS011;13866;50.748;12.630;2023-05-10T08:44:30;8.00;;;7.60;;
26106;SDS011;13866;50.748;12.630;2023-05-10T08:46:57;7.60;;;7.07;;
26106;SDS011;13866;50.748;12.630;2023-05-10T08:49:26;6.83;;;6.63;;
26106;SDS011;13866;50.748;12.630;2023-05-10T08:51:55;7.97;;;7.57;;
26106;SDS011;13866;50.748;12.630;2023-05-10T08:54:24;11.60;;;8.00;;
26106;SDS011;13866;50.748;12.630;2023-05-10T08:56:50;8.87;;;8.13;;
26106;SDS011;13866;50.748;12.630;2023-05-10T08:59:16;6.83;;;6.37;;
26106;SDS011;13866;50.748;12.630;2023-05-10T09:01:42;7.13;;;6.73;;
26106;SDS011;13866;50.748;12.630;2023-05-10T09:04:09;8.87;;;8.47;;
26106;SDS011;13866;50.748;12.630;2023-05-10T09:06:35;8.10;;;7.70;;
26106;SDS011;13866;50.748;12.630;2023-05-10T09:09:04;8.30;;;7.80;;
26106;SDS011;13866;50.748;12.630;2023-05-10T09:11:29;12.37;;;7.53;;
26106;SDS011;13866;50.748;12.630;2023-05-10T09:13:56;9.27;;;8.33;;
26106;SDS011;13866;50.748;12.630;2023-05-10T09:16:22;8.27;;;7.80;;
26106;SDS011;13866;50.748;12.630;2023-05-10T09:18:48;6.97;;;6.67;;
26106;SDS011;13866;50.748;12.630;2023-05-10T09:21:20;7.43;;;6.83;;
26106;SDS011;13866;50.748;12.630;2023-05-10T09:23:45;6.97;;;6.67;;
26106;SDS011;13866;50.748;12.630;2023-05-10T09:26:19;7.00;;;6.60;;
26106;SDS011;13866;50.748;12.630;2023-05-10T09:31:20;6.27;;;5.97;;
26106;SDS011;13866;50.748;12.630;2023-05-10T09:33:50;7.10;;;6.50;;
26106;SDS011;13866;50.748;12.630;2023-05-10T09:36:16;7.50;;;7.00;;
26106;SDS011;13866;50.748;12.630;2023-05-10T09:38:48;8.97;;;6.23;;
26106;SDS011;13866;50.748;12.630;2023-05-10T09:41:20;6.90;;;6.50;;
26106;SDS011;13866;50.748;12.630;2023-05-10T09:43:47;6.67;;;6.50;;
26106;SDS011;13866;50.748;12.630;2023-05-10T09:46:13;7.07;;;6.57;;
26106;SDS011;13866;50.748;12.630;2023-05-10T09:48:41;6.27;;;5.77;;
26106;SDS011;13866;50.748;12.630;2023-05-10T09:51:10;6.53;;;6.17;;
26106;SDS011;13866;50.748;12.630;2023-05-10T09:53:48;6.07;;;5.97;;
26106;SDS011;13866;50.748;12.630;2023-05-10T09:56:37;6.87;;;6.63;;
26106;SDS011;13866;50.748;12.630;2023-05-10T09:59:05;6.13;;;5.73;;
26106;SDS011;13866;50.748;12.630;2023-05-10T10:01:32;5.87;;;5.67;;
26106;SDS011;13866;50.748;12.630;2023-05-10T10:04:02;6.40;;;6.20;;
26106;SDS011;13866;50.748;12.630;2023-05-10T10:06:40;5.97;;;5.40;;
26106;SDS011;13866;50.748;12.630;2023-05-10T10:09:10;7.13;;;6.63;;
26106;SDS011;13866;50.748;12.630;2023-05-10T10:11:36;6.77;;;6.47;;
26106;SDS011;13866;50.748;12.630;2023-05-10T10:14:03;6.57;;;6.27;;
26106;SDS011;13866;50.748;12.630;2023-05-10T10:16:29;6.10;;;5.90;;
26106;SDS011;13866;50.748;12.630;2023-05-10T10:18:55;6.13;;;5.93;;
26106;SDS011;13866;50.748;12.630;2023-05-10T10:21:21;6.37;;;6.17;;
26106;SDS011;13866;50.748;12.630;2023-05-10T10:23:48;5.90;;;5.80;;
26106;SDS011;13866;50.748;12.630;2023-05-10T10:26:13;8.40;;;8.00;;
26106;SDS011;13866;50.748;12.630;2023-05-10T10:34:28;7.00;;;6.60;;
26106;SDS011;13866;50.748;12.630;2023-05-10T10:36:56;7.40;;;6.87;;
26106;SDS011;13866;50.748;12.630;2023-05-10T10:39:22;7.07;;;6.90;;
26106;SDS011;13866;50.748;12.630;2023-05-10T10:41:52;6.80;;;6.60;;
26106;SDS011;13866;50.748;12.630;2023-05-10T10:50:05;8.17;;;7.67;;
26106;SDS011;13866;50.748;12.630;2023-05-10T10:52:36;9.33;;;8.73;;
26106;SDS011;13866;50.748;12.630;2023-05-10T10:55:05;9.27;;;8.67;;
26106;SDS011;13866;50.748;12.630;2023-05-10T11:00:28;7.53;;;7.20;;
26106;SDS011;13866;50.748;12.630;2023-05-10T11:03:05;7.23;;;6.83;;
26106;SDS011;13866;50.748;12.630;2023-05-10T11:10:39;7.23;;;6.83;;
26106;SDS011;13866;50.748;12.630;2023-05-10T11:13:16;6.83;;;6.30;;
26106;SDS011;13866;50.748;12.630;2023-05-10T11:15:54;6.80;;;6.60;;
26106;SDS011;13866;50.748;12.630;2023-05-10T11:18:31;7.20;;;6.60;;
26106;SDS011;13866;50.748;12.630;2023-05-10T11:20:59;7.57;;;7.27;;
26106;SDS011;13866;50.748;12.630;2023-05-10T11:23:33;7.63;;;7.20;;
26106;SDS011;13866;50.748;12.630;2023-05-10T11:26:12;5.77;;;5.67;;
26106;SDS011;13866;50.748;12.630;2023-05-10T11:28:42;7.13;;;6.73;;
26106;SDS011;13866;50.748;12.630;2023-05-10T11:31:09;5.10;;;5.00;;
26106;SDS011;13866;50.748;12.630;2023-05-10T11:33:45;7.03;;;6.63;;
26106;SDS011;13866;50.748;12.630;2023-05-10T11:36:13;6.00;;;5.90;;
26106;SDS011;13866;50.748;12.630;2023-05-10T11:38:46;4.90;;;4.50;;
26106;SDS011;13866;50.748;12.630;2023-05-10T11:41:12;5.43;;;5.23;;
26106;SDS011;13866;50.748;12.630;2023-05-10T11:43:38;5.90;;;5.60;;
26106;SDS011;13866;50.748;12.630;2023-05-10T11:46:11;5.47;;;5.17;;
26106;SDS011;13866;50.748;12.630;2023-05-10T11:48:47;5.40;;;5.20;;
26106;SDS011;13866;50.748;12.630;2023-05-10T11:51:19;5.60;;;5.43;;
26106;SDS011;13866;50.748;12.630;2023-05-10T11:53:49;5.07;;;4.70;;
26106;SDS011;13866;50.748;12.630;2023-05-10T11:56:17;4.67;;;4.57;;
26106;SDS011;13866;50.748;12.630;2023-05-10T11:58:42;4.30;;;4.20;;
26106;SDS011;13866;50.748;12.630;2023-05-10T12:01:08;4.73;;;4.63;;
26106;SDS011;13866;50.748;12.630;2023-05-10T12:03:35;4.67;;;4.47;;
26106;SDS011;13866;50.748;12.630;2023-05-10T12:06:01;6.13;;;5.30;;
26106;SDS011;13866;50.748;12.630;2023-05-10T12:08:28;5.20;;;5.10;;
26106;SDS011;13866;50.748;12.630;2023-05-10T12:11:04;5.60;;;5.50;;
26106;SDS011;13866;50.748;12.630;2023-05-10T12:13:37;4.60;;;4.40;;
26106;SDS011;13866;50.748;12.630;2023-05-10T12:16:16;4.87;;;4.80;;
26106;SDS011;13866;50.748;12.630;2023-05-10T12:18:43;5.80;;;5.60;;
26106;SDS011;13866;50.748;12.630;2023-05-10T12:21:09;6.40;;;6.03;;
26106;SDS011;13866;50.748;12.630;2023-05-10T12:23:38;6.87;;;5.90;;
26106;SDS011;13866;50.748;12.630;2023-05-10T12:26:13;7.67;;;7.13;;
26106;SDS011;13866;50.748;12.630;2023-05-10T12:28:39;8.00;;;7.60;;
26106;SDS011;13866;50.748;12.630;2023-05-10T12:31:05;6.70;;;6.40;;
26106;SDS011;13866;50.748;12.630;2023-05-10T12:33:41;7.90;;;7.10;;
26106;SDS011;13866;50.748;12.630;2023-05-10T12:36:11;5.90;;;5.80;;
26106;SDS011;13866;50.748;12.630;2023-05-10T12:38:41;5.97;;;5.67;;
26106;SDS011;13866;50.748;12.630;2023-05-10T12:41:12;4.63;;;4.53;;
26106;SDS011;13866;50.748;12.630;2023-05-10T12:43:38;4.90;;;4.80;;
26106;SDS011;13866;50.748;12.630;2023-05-10T12:46:08;4.33;;;4.20;;
26106;SDS011;13866;50.748;12.630;2023-05-10T12:48:41;4.13;;;4.03;;
26106;SDS011;13866;50.748;12.630;2023-05-10T12:51:07;4.50;;;4.40;;
26106;SDS011;13866;50.748;12.630;2023-05-10T12:53:34;4.43;;;4.13;;
26106;SDS011;13866;50.748;12.630;2023-05-10T12:56:00;4.20;;;4.10;;
26106;SDS011;13866;50.748;12.630;2023-05-10T12:58:26;4.13;;;3.80;;
26106;SDS011;13866;50.748;12.630;2023-05-10T13:00:52;4.10;;;3.80;;
26106;SDS011;13866;50.748;12.630;2023-05-10T13:03:17;3.57;;;3.57;;
26106;SDS011;13866;50.748;12.630;2023-05-10T13:05:43;2.93;;;2.93;;
26106;SDS011;13866;50.748;12.630;2023-05-10T13:08:08;3.87;;;3.77;;
26106;SDS011;13866;50.748;12.630;2023-05-10T13:10:34;3.43;;;3.43;;
26106;SDS011;13866;50.748;12.630;2023-05-10T13:13:00;2.57;;;2.57;;
26106;SDS011;13866;50.748;12.630;2023-05-10T13:15:25;3.50;;;3.03;;
26106;SDS011;13866;50.748;12.630;2023-05-10T13:17:51;3.20;;;3.10;;
26106;SDS011;13866;50.748;12.630;2023-05-10T13:20:17;3.00;;;3.00;;
26106;SDS011;13866;50.748;12.630;2023-05-10T13:22:43;5.17;;;2.83;;
26106;SDS011;13866;50.748;12.630;2023-05-10T13:25:09;3.37;;;3.27;;
26106;SDS011;13866;50.748;12.630;2023-05-10T13:27:35;2.60;;;2.60;;
26106;SDS011;13866;50.748;12.630;2023-05-10T13:30:01;3.20;;;3.10;;
26106;SDS011;13866;50.748;12.630;2023-05-10T13:32:28;3.60;;;3.60;;
26106;SDS011;13866;50.748;12.630;2023-05-10T13:34:54;2.80;;;2.80;;
26106;SDS011;13866;50.748;12.630;2023-05-10T13:37:20;2.10;;;2.10;;
26106;SDS011;13866;50.748;12.630;2023-05-10T13:39:46;2.77;;;2.67;;
26106;SDS011;13866;50.748;12.630;2023-05-10T13:42:12;2.53;;;2.53;;
26106;SDS011;13866;50.748;12.630;2023-05-10T13:44:37;2.10;;;2.10;;
26106;SDS011;13866;50.748;12.630;2023-05-10T13:47:04;2.03;;;2.03;;
26106;SDS011;13866;50.748;12.630;2023-05-10T13:49:30;2.40;;;2.40;;
26106;SDS011;13866;50.748;12.630;2023-05-10T13:51:55;2.33;;;2.33;;
26106;SDS011;13866;50.748;12.630;2023-05-10T13:54:21;1.60;;;1.60;;
26106;SDS011;13866;50.748;12.630;2023-05-10T13:56:47;2.00;;;2.00;;
26106;SDS011;13866;50.748;12.630;2023-05-10T13:59:13;2.17;;;2.17;;
26106;SDS011;13866;50.748;12.630;2023-05-10T14:01:39;2.90;;;2.50;;
26106;SDS011;13866;50.748;12.630;2023-05-10T14:04:05;2.27;;;2.27;;
26106;SDS011;13866;50.748;12.630;2023-05-10T14:09:19;2.27;;;2.27;;
26106;SDS011;13866;50.748;12.630;2023-05-10T14:11:45;3.00;;;2.83;;
26106;SDS011;13866;50.748;12.630;2023-05-10T14:14:10;2.33;;;2.33;;
26106;SDS011;13866;50.748;12.630;2023-05-10T14:16:37;2.33;;;2.33;;
26106;SDS011;13866;50.748;12.630;2023-05-10T14:19:12;2.77;;;2.77;;
26106;SDS011;13866;50.748;12.630;2023-05-10T14:21:37;2.97;;;2.87;;
26106;SDS011;13866;50.748;12.630;2023-05-10T14:24:03;2.67;;;2.67;;
26106;SDS011;13866;50.748;12.630;2023-05-10T14:26:29;3.03;;;3.03;;
26106;SDS011;13866;50.748;12.630;2023-05-10T14:28:55;2.80;;;2.80;;
26106;SDS011;13866;50.748;12.630;2023-05-10T14:31:21;2.43;;;2.33;;
26106;SDS011;13866;50.748;12.630;2023-05-10T14:33:48;1.87;;;1.87;;
26106;SDS011;13866;50.748;12.630;2023-05-10T14:36:13;2.20;;;2.20;;
26106;SDS011;13866;50.748;12.630;2023-05-10T14:38:39;1.97;;;1.97;;
26106;SDS011;13866;50.748;12.630;2023-05-10T14:41:05;1.77;;;1.77;;
26106;SDS011;13866;50.748;12.630;2023-05-10T14:43:31;2.10;;;2.10;;
26106;SDS011;13866;50.748;12.630;2023-05-10T14:45:56;1.53;;;1.53;;
26106;SDS011;13866;50.748;12.630;2023-05-10T14:48:22;1.43;;;1.33;;
26106;SDS011;13866;50.748;12.630;2023-05-10T14:50:47;1.37;;;1.37;;
26106;SDS011;13866;50.748;12.630;2023-05-10T14:53:14;1.37;;;1.27;;
26106;SDS011;13866;50.748;12.630;2023-05-10T14:55:40;1.07;;;1.07;;
26106;SDS011;13866;50.748;12.630;2023-05-10T14:58:05;4.93;;;1.43;;
26106;SDS011;13866;50.748;12.630;2023-05-10T15:00:31;0.97;;;0.97;;
26106;SDS011;13866;50.748;12.630;2023-05-10T15:02:56;0.70;;;0.70;;
26106;SDS011;13866;50.748;12.630;2023-05-10T15:05:22;0.70;;;0.70;;
26106;SDS011;13866;50.748;12.630;2023-05-10T15:08:06;0.70;;;0.70;;
26106;SDS011;13866;50.748;12.630;2023-05-10T15:10:32;0.63;;;0.63;;